This is the latest recevied weather packets stored in our database for station/object KJ4AJP. If no packets are shown the sender has not sent any weather packets the latest 10 day(s).
| Time | Temp. | Humidity | Pressure | Rain* | Wind** | Luminosity | Snow |
|---|---|---|---|---|---|---|---|
| 1777132525 | 25.56° C | 59% | 1010.7 hPa | 0 mm | - | 655 W/m² | - |
| 1777132222 | 25.56° C | 59% | 1010.5 hPa | 0 mm | - | 646 W/m² | - |
| 1777131917 | 25° C | 63% | 1010.7 hPa | 0 mm | - | 630 W/m² | - |
| 1777131616 | 25° C | 59% | 1010.5 hPa | 0 mm | - | 619 W/m² | - |
| 1777131315 | 25° C | 61% | 1010.5 hPa | 0 mm | - | 610 W/m² | - |
| 1777131010 | 24.44° C | 64% | 1010.7 hPa | 0 mm | - | 600 W/m² | - |
| 1777130706 | 23.89° C | 64% | 1010.6 hPa | 0 mm | - | 591 W/m² | - |
| 1777130402 | 23.89° C | 64% | 1010.6 hPa | 0 mm | - | 578 W/m² | - |
| 1777130098 | 23.89° C | 65% | 1010.7 hPa | 0 mm | - | 568 W/m² | - |
| 1777129794 | 23.33° C | 65% | 1010.6 hPa | 0 mm | - | 548 W/m² | - |
| 1777129489 | 23.33° C | 66% | 1010.5 hPa | 0 mm | - | 538 W/m² | - |
| 1777129188 | 23.89° C | 65% | 1010.4 hPa | 0 mm | - | 522 W/m² | - |
| 1777128885 | 23.33° C | 69% | 1010.5 hPa | 0 mm | - | 517 W/m² | - |
| 1777128581 | 23.89° C | 67% | 1010.5 hPa | 0 mm | - | 499 W/m² | - |
| 1777128278 | 22.78° C | 69% | 1010.5 hPa | 0 mm | - | 484 W/m² | - |
| 1777127976 | 22.78° C | 70% | 1010.4 hPa | 0 mm | - | 470 W/m² | - |
| 1777127674 | 22.22° C | 71% | 1010.6 hPa | 0 mm | - | 460 W/m² | - |
| 1777127370 | 22.22° C | 71% | 1010.6 hPa | 0 mm | - | 443 W/m² | - |
| 1777127066 | 22.22° C | 72% | 1010.6 hPa | 0 mm | - | 418 W/m² | - |
| 1777126762 | 21.67° C | 75% | 1010.5 hPa | 0 mm | - | 383 W/m² | - |
| 1777126459 | 21.67° C | 75% | 1010.5 hPa | 0 mm | - | 345 W/m² | - |
| 1777126154 | 21.11° C | 79% | 1010.6 hPa | 0 mm | - | 272 W/m² | - |
| 1777125850 | 20.56° C | 79% | 1010.4 hPa | 0 mm | - | 303 W/m² | - |
| 1777125547 | 20.56° C | 80% | 1010.5 hPa | 0 mm | - | 280 W/m² | - |
| 1777125242 | 20° C | 82% | 1010.7 hPa | 0 mm | - | 77 W/m² | - |
* Rain latest hour (hover to see other rain measurements)
** Current wind speed in m/s (hover to see current wind gust speed)